sensor_id;sensor_type;location;lat;lon;timestamp;P1;durP1;ratioP1;P2;durP2;ratioP2
17818;SDS011;9034;50.284;19.310;2023-07-09T00:00:53;5.85;;;5.20;;
17818;SDS011;9034;50.284;19.310;2023-07-09T00:01:55;5.72;;;5.22;;
17818;SDS011;9034;50.284;19.310;2023-07-09T00:02:57;5.80;;;4.97;;
17818;SDS011;9034;50.284;19.310;2023-07-09T00:04:00;5.93;;;5.30;;
17818;SDS011;9034;50.284;19.310;2023-07-09T00:05:02;5.55;;;5.05;;
17818;SDS011;9034;50.284;19.310;2023-07-09T00:06:07;5.95;;;5.07;;
17818;SDS011;9034;50.284;19.310;2023-07-09T00:07:12;5.00;;;4.60;;
17818;SDS011;9034;50.284;19.310;2023-07-09T00:08:24;6.60;;;5.10;;
17818;SDS011;9034;50.284;19.310;2023-07-09T00:09:28;5.40;;;4.90;;
17818;SDS011;9034;50.284;19.310;2023-07-09T00:10:29;6.25;;;5.47;;
17818;SDS011;9034;50.284;19.310;2023-07-09T00:11:33;6.68;;;6.05;;
17818;SDS011;9034;50.284;19.310;2023-07-09T00:12:34;6.25;;;5.15;;
17818;SDS011;9034;50.284;19.310;2023-07-09T00:13:36;6.05;;;4.95;;
17818;SDS011;9034;50.284;19.310;2023-07-09T00:14:39;5.78;;;5.28;;
17818;SDS011;9034;50.284;19.310;2023-07-09T00:15:41;5.25;;;4.75;;
17818;SDS011;9034;50.284;19.310;2023-07-09T00:16:45;5.40;;;4.88;;
17818;SDS011;9034;50.284;19.310;2023-07-09T00:17:49;6.43;;;5.82;;
17818;SDS011;9034;50.284;19.310;2023-07-09T00:18:52;7.03;;;6.40;;
17818;SDS011;9034;50.284;19.310;2023-07-09T00:19:54;9.48;;;5.47;;
17818;SDS011;9034;50.284;19.310;2023-07-09T00:20:57;7.65;;;5.93;;
17818;SDS011;9034;50.284;19.310;2023-07-09T00:22:00;9.07;;;6.10;;
17818;SDS011;9034;50.284;19.310;2023-07-09T00:23:03;6.70;;;6.00;;
17818;SDS011;9034;50.284;19.310;2023-07-09T00:24:07;6.32;;;5.07;;
17818;SDS011;9034;50.284;19.310;2023-07-09T00:25:12;8.02;;;6.00;;
17818;SDS011;9034;50.284;19.310;2023-07-09T00:26:18;7.75;;;5.85;;
17818;SDS011;9034;50.284;19.310;2023-07-09T00:27:28;8.40;;;5.63;;
17818;SDS011;9034;50.284;19.310;2023-07-09T00:28:32;8.90;;;6.45;;
17818;SDS011;9034;50.284;19.310;2023-07-09T00:29:35;5.80;;;5.25;;
17818;SDS011;9034;50.284;19.310;2023-07-09T00:30:37;5.75;;;5.00;;
17818;SDS011;9034;50.284;19.310;2023-07-09T00:31:40;5.32;;;4.82;;
17818;SDS011;9034;50.284;19.310;2023-07-09T00:32:43;8.05;;;5.32;;
17818;SDS011;9034;50.284;19.310;2023-07-09T00:33:46;5.28;;;4.63;;
17818;SDS011;9034;50.284;19.310;2023-07-09T00:34:50;6.45;;;5.25;;
17818;SDS011;9034;50.284;19.310;2023-07-09T00:35:55;5.43;;;4.93;;
17818;SDS011;9034;50.284;19.310;2023-07-09T00:36:57;6.25;;;5.65;;
17818;SDS011;9034;50.284;19.310;2023-07-09T00:38:00;6.50;;;5.90;;
17818;SDS011;9034;50.284;19.310;2023-07-09T00:39:02;6.25;;;5.65;;
17818;SDS011;9034;50.284;19.310;2023-07-09T00:40:09;6.15;;;5.50;;
17818;SDS011;9034;50.284;19.310;2023-07-09T00:41:15;5.72;;;5.18;;
17818;SDS011;9034;50.284;19.310;2023-07-09T00:42:20;6.25;;;5.65;;
17818;SDS011;9034;50.284;19.310;2023-07-09T00:43:23;7.30;;;6.20;;
17818;SDS011;9034;50.284;19.310;2023-07-09T00:44:27;6.88;;;5.78;;
17818;SDS011;9034;50.284;19.310;2023-07-09T00:45:31;7.78;;;6.00;;
17818;SDS011;9034;50.284;19.310;2023-07-09T00:48:19;6.97;;;5.68;;
17818;SDS011;9034;50.284;19.310;2023-07-09T00:49:26;7.55;;;6.80;;
17818;SDS011;9034;50.284;19.310;2023-07-09T00:50:33;6.93;;;6.22;;
17818;SDS011;9034;50.284;19.310;2023-07-09T00:51:38;6.00;;;5.40;;
17818;SDS011;9034;50.284;19.310;2023-07-09T00:52:46;7.30;;;5.90;;
17818;SDS011;9034;50.284;19.310;2023-07-09T00:53:53;6.60;;;5.95;;
17818;SDS011;9034;50.284;19.310;2023-07-09T00:54:56;7.03;;;6.03;;
17818;SDS011;9034;50.284;19.310;2023-07-09T00:56:04;6.85;;;6.15;;
17818;SDS011;9034;50.284;19.310;2023-07-09T00:57:07;5.95;;;5.40;;
17818;SDS011;9034;50.284;19.310;2023-07-09T00:58:13;5.90;;;5.40;;
17818;SDS011;9034;50.284;19.310;2023-07-09T00:59:22;7.75;;;6.05;;
17818;SDS011;9034;50.284;19.310;2023-07-09T01:00:28;6.63;;;5.57;;
17818;SDS011;9034;50.284;19.310;2023-07-09T01:01:44;8.55;;;6.72;;
17818;SDS011;9034;50.284;19.310;2023-07-09T01:02:49;6.38;;;5.70;;
17818;SDS011;9034;50.284;19.310;2023-07-09T01:03:52;6.00;;;5.50;;
17818;SDS011;9034;50.284;19.310;2023-07-09T01:04:59;6.13;;;5.50;;
17818;SDS011;9034;50.284;19.310;2023-07-09T01:06:04;6.35;;;5.75;;
17818;SDS011;9034;50.284;19.310;2023-07-09T01:07:07;6.95;;;5.50;;
17818;SDS011;9034;50.284;19.310;2023-07-09T01:08:10;5.93;;;5.38;;
17818;SDS011;9034;50.284;19.310;2023-07-09T01:09:14;6.28;;;5.65;;
17818;SDS011;9034;50.284;19.310;2023-07-09T01:10:16;9.25;;;7.03;;
17818;SDS011;9034;50.284;19.310;2023-07-09T01:11:22;9.63;;;6.85;;
17818;SDS011;9034;50.284;19.310;2023-07-09T01:12:24;9.02;;;6.60;;
17818;SDS011;9034;50.284;19.310;2023-07-09T01:13:27;7.30;;;6.60;;
17818;SDS011;9034;50.284;19.310;2023-07-09T01:14:30;8.13;;;6.25;;
17818;SDS011;9034;50.284;19.310;2023-07-09T01:15:33;5.25;;;4.75;;
17818;SDS011;9034;50.284;19.310;2023-07-09T01:16:39;7.05;;;5.82;;
17818;SDS011;9034;50.284;19.310;2023-07-09T01:17:43;10.60;;;6.47;;
17818;SDS011;9034;50.284;19.310;2023-07-09T01:18:46;5.65;;;5.15;;
17818;SDS011;9034;50.284;19.310;2023-07-09T01:19:49;5.15;;;4.65;;
17818;SDS011;9034;50.284;19.310;2023-07-09T01:20:58;5.63;;;5.10;;
17818;SDS011;9034;50.284;19.310;2023-07-09T01:22:11;5.07;;;4.57;;
17818;SDS011;9034;50.284;19.310;2023-07-09T01:23:14;5.97;;;5.22;;
17818;SDS011;9034;50.284;19.310;2023-07-09T01:25:49;6.00;;;5.18;;
17818;SDS011;9034;50.284;19.310;2023-07-09T01:26:54;5.13;;;4.70;;
17818;SDS011;9034;50.284;19.310;2023-07-09T01:27:56;6.85;;;5.18;;
17818;SDS011;9034;50.284;19.310;2023-07-09T01:28:59;5.55;;;4.95;;
17818;SDS011;9034;50.284;19.310;2023-07-09T01:30:04;5.57;;;4.57;;
17818;SDS011;9034;50.284;19.310;2023-07-09T01:31:08;6.25;;;5.22;;
17818;SDS011;9034;50.284;19.310;2023-07-09T01:32:13;5.55;;;5.05;;
17818;SDS011;9034;50.284;19.310;2023-07-09T01:33:15;7.07;;;5.50;;
17818;SDS011;9034;50.284;19.310;2023-07-09T01:34:18;5.97;;;4.57;;
17818;SDS011;9034;50.284;19.310;2023-07-09T01:35:23;5.47;;;4.95;;
17818;SDS011;9034;50.284;19.310;2023-07-09T01:36:29;7.82;;;5.65;;
17818;SDS011;9034;50.284;19.310;2023-07-09T01:37:31;6.07;;;5.47;;
17818;SDS011;9034;50.284;19.310;2023-07-09T01:38:36;6.22;;;5.55;;
17818;SDS011;9034;50.284;19.310;2023-07-09T01:39:38;5.90;;;5.30;;
17818;SDS011;9034;50.284;19.310;2023-07-09T01:40:41;7.00;;;6.40;;
17818;SDS011;9034;50.284;19.310;2023-07-09T01:43:06;6.78;;;6.18;;
17818;SDS011;9034;50.284;19.310;2023-07-09T01:44:09;7.15;;;6.28;;
17818;SDS011;9034;50.284;19.310;2023-07-09T01:45:13;7.13;;;6.47;;
17818;SDS011;9034;50.284;19.310;2023-07-09T01:46:16;8.73;;;6.50;;
17818;SDS011;9034;50.284;19.310;2023-07-09T01:47:18;7.72;;;6.45;;
17818;SDS011;9034;50.284;19.310;2023-07-09T01:48:21;7.45;;;6.70;;
17818;SDS011;9034;50.284;19.310;2023-07-09T01:49:26;6.65;;;5.35;;
17818;SDS011;9034;50.284;19.310;2023-07-09T01:50:31;8.15;;;5.82;;
17818;SDS011;9034;50.284;19.310;2023-07-09T01:51:34;7.28;;;6.55;;
17818;SDS011;9034;50.284;19.310;2023-07-09T01:52:38;8.07;;;5.88;;
17818;SDS011;9034;50.284;19.310;2023-07-09T01:53:43;6.65;;;6.05;;
17818;SDS011;9034;50.284;19.310;2023-07-09T01:54:46;5.68;;;5.18;;
17818;SDS011;9034;50.284;19.310;2023-07-09T01:55:51;5.88;;;5.28;;
17818;SDS011;9034;50.284;19.310;2023-07-09T01:57:12;6.40;;;5.80;;
17818;SDS011;9034;50.284;19.310;2023-07-09T01:58:15;7.32;;;6.45;;
17818;SDS011;9034;50.284;19.310;2023-07-09T01:59:18;8.35;;;6.22;;
17818;SDS011;9034;50.284;19.310;2023-07-09T02:00:22;7.90;;;6.57;;
17818;SDS011;9034;50.284;19.310;2023-07-09T02:01:24;9.02;;;6.78;;
17818;SDS011;9034;50.284;19.310;2023-07-09T02:02:28;5.80;;;5.28;;
17818;SDS011;9034;50.284;19.310;2023-07-09T02:03:30;5.95;;;5.43;;
17818;SDS011;9034;50.284;19.310;2023-07-09T02:04:33;5.85;;;5.25;;
17818;SDS011;9034;50.284;19.310;2023-07-09T02:05:35;6.00;;;5.38;;
17818;SDS011;9034;50.284;19.310;2023-07-09T02:06:40;7.93;;;5.75;;
17818;SDS011;9034;50.284;19.310;2023-07-09T02:07:42;6.47;;;5.88;;
17818;SDS011;9034;50.284;19.310;2023-07-09T02:08:44;6.55;;;5.80;;
17818;SDS011;9034;50.284;19.310;2023-07-09T02:09:47;6.75;;;5.68;;
17818;SDS011;9034;50.284;19.310;2023-07-09T02:10:49;6.57;;;5.13;;
17818;SDS011;9034;50.284;19.310;2023-07-09T02:11:52;7.25;;;6.35;;
17818;SDS011;9034;50.284;19.310;2023-07-09T02:12:55;7.75;;;6.38;;
17818;SDS011;9034;50.284;19.310;2023-07-09T02:13:57;6.40;;;5.80;;
17818;SDS011;9034;50.284;19.310;2023-07-09T02:15:00;6.03;;;5.20;;
17818;SDS011;9034;50.284;19.310;2023-07-09T02:16:02;7.25;;;5.95;;
17818;SDS011;9034;50.284;19.310;2023-07-09T02:17:05;6.90;;;5.53;;
17818;SDS011;9034;50.284;19.310;2023-07-09T02:18:08;6.07;;;5.47;;
17818;SDS011;9034;50.284;19.310;2023-07-09T02:19:11;7.70;;;5.70;;
17818;SDS011;9034;50.284;19.310;2023-07-09T02:20:13;10.43;;;6.43;;
17818;SDS011;9034;50.284;19.310;2023-07-09T02:21:16;7.45;;;6.75;;
17818;SDS011;9034;50.284;19.310;2023-07-09T02:22:20;6.50;;;5.80;;
17818;SDS011;9034;50.284;19.310;2023-07-09T02:23:25;10.55;;;6.13;;
17818;SDS011;9034;50.284;19.310;2023-07-09T02:24:28;6.53;;;5.93;;
17818;SDS011;9034;50.284;19.310;2023-07-09T02:25:31;6.88;;;6.18;;
17818;SDS011;9034;50.284;19.310;2023-07-09T02:26:33;7.63;;;6.43;;
17818;SDS011;9034;50.284;19.310;2023-07-09T02:27:37;9.65;;;6.97;;
17818;SDS011;9034;50.284;19.310;2023-07-09T02:28:39;7.72;;;6.20;;
17818;SDS011;9034;50.284;19.310;2023-07-09T02:29:42;8.70;;;6.65;;
17818;SDS011;9034;50.284;19.310;2023-07-09T02:30:44;8.05;;;6.28;;
17818;SDS011;9034;50.284;19.310;2023-07-09T02:31:48;9.90;;;6.78;;
17818;SDS011;9034;50.284;19.310;2023-07-09T02:32:50;6.18;;;5.57;;
17818;SDS011;9034;50.284;19.310;2023-07-09T02:33:55;7.93;;;5.43;;
17818;SDS011;9034;50.284;19.310;2023-07-09T02:34:57;6.97;;;5.20;;
17818;SDS011;9034;50.284;19.310;2023-07-09T02:36:00;6.15;;;4.40;;
17818;SDS011;9034;50.284;19.310;2023-07-09T02:37:02;5.03;;;4.22;;
17818;SDS011;9034;50.284;19.310;2023-07-09T02:38:06;5.80;;;5.18;;
17818;SDS011;9034;50.284;19.310;2023-07-09T02:39:08;6.72;;;5.35;;
17818;SDS011;9034;50.284;19.310;2023-07-09T02:40:12;6.30;;;4.93;;
17818;SDS011;9034;50.284;19.310;2023-07-09T02:41:14;4.88;;;4.20;;
17818;SDS011;9034;50.284;19.310;2023-07-09T02:42:18;4.97;;;4.45;;
17818;SDS011;9034;50.284;19.310;2023-07-09T02:43:21;4.65;;;4.25;;
17818;SDS011;9034;50.284;19.310;2023-07-09T02:44:24;5.15;;;4.68;;
17818;SDS011;9034;50.284;19.310;2023-07-09T02:45:26;5.05;;;4.43;;
17818;SDS011;9034;50.284;19.310;2023-07-09T02:46:30;5.32;;;4.80;;
17818;SDS011;9034;50.284;19.310;2023-07-09T02:47:31;5.50;;;4.90;;
17818;SDS011;9034;50.284;19.310;2023-07-09T02:48:35;5.28;;;4.78;;
17818;SDS011;9034;50.284;19.310;2023-07-09T02:49:37;7.45;;;5.00;;
17818;SDS011;9034;50.284;19.310;2023-07-09T02:50:40;6.68;;;5.22;;
17818;SDS011;9034;50.284;19.310;2023-07-09T02:51:42;5.50;;;5.00;;
17818;SDS011;9034;50.284;19.310;2023-07-09T02:52:45;6.07;;;5.47;;
17818;SDS011;9034;50.284;19.310;2023-07-09T02:53:48;8.32;;;5.95;;
17818;SDS011;9034;50.284;19.310;2023-07-09T02:54:50;6.35;;;5.65;;
17818;SDS011;9034;50.284;19.310;2023-07-09T02:55:53;8.38;;;6.28;;
17818;SDS011;9034;50.284;19.310;2023-07-09T02:56:55;6.80;;;6.18;;
17818;SDS011;9034;50.284;19.310;2023-07-09T02:57:58;7.68;;;6.50;;
17818;SDS011;9034;50.284;19.310;2023-07-09T02:59:00;7.22;;;6.53;;
17818;SDS011;9034;50.284;19.310;2023-07-09T03:00:03;6.78;;;5.80;;
17818;SDS011;9034;50.284;19.310;2023-07-09T03:01:07;9.60;;;6.40;;
17818;SDS011;9034;50.284;19.310;2023-07-09T03:02:09;7.28;;;6.63;;
17818;SDS011;9034;50.284;19.310;2023-07-09T03:03:12;8.73;;;6.05;;
17818;SDS011;9034;50.284;19.310;2023-07-09T03:04:15;6.47;;;5.38;;
17818;SDS011;9034;50.284;19.310;2023-07-09T03:05:17;5.97;;;5.38;;
17818;SDS011;9034;50.284;19.310;2023-07-09T03:06:20;6.47;;;5.88;;
17818;SDS011;9034;50.284;19.310;2023-07-09T03:07:23;6.15;;;5.13;;
17818;SDS011;9034;50.284;19.310;2023-07-09T03:08:25;6.15;;;4.68;;
17818;SDS011;9034;50.284;19.310;2023-07-09T03:09:29;4.70;;;4.25;;
17818;SDS011;9034;50.284;19.310;2023-07-09T03:10:31;6.63;;;5.03;;
17818;SDS011;9034;50.284;19.310;2023-07-09T03:11:34;4.97;;;4.47;;
17818;SDS011;9034;50.284;19.310;2023-07-09T03:12:37;6.25;;;5.32;;
17818;SDS011;9034;50.284;19.310;2023-07-09T03:13:39;6.07;;;5.10;;
17818;SDS011;9034;50.284;19.310;2023-07-09T03:14:42;7.45;;;5.38;;
17818;SDS011;9034;50.284;19.310;2023-07-09T03:15:53;8.00;;;5.95;;
17818;SDS011;9034;50.284;19.310;2023-07-09T03:16:56;6.25;;;5.45;;
17818;SDS011;9034;50.284;19.310;2023-07-09T03:17:58;8.63;;;5.38;;
17818;SDS011;9034;50.284;19.310;2023-07-09T03:19:01;6.65;;;5.95;;
17818;SDS011;9034;50.284;19.310;2023-07-09T03:20:05;9.02;;;6.50;;
17818;SDS011;9034;50.284;19.310;2023-07-09T03:21:10;14.43;;;7.43;;
17818;SDS011;9034;50.284;19.310;2023-07-09T03:22:12;9.85;;;8.05;;
17818;SDS011;9034;50.284;19.310;2023-07-09T03:23:15;7.82;;;6.63;;
17818;SDS011;9034;50.284;19.310;2023-07-09T03:24:17;7.32;;;6.47;;
17818;SDS011;9034;50.284;19.310;2023-07-09T03:25:23;9.63;;;6.90;;
17818;SDS011;9034;50.284;19.310;2023-07-09T03:26:25;10.57;;;7.32;;
17818;SDS011;9034;50.284;19.310;2023-07-09T03:27:28;9.13;;;7.38;;
17818;SDS011;9034;50.284;19.310;2023-07-09T03:28:30;8.77;;;7.15;;
17818;SDS011;9034;50.284;19.310;2023-07-09T03:29:33;9.05;;;7.30;;
17818;SDS011;9034;50.284;19.310;2023-07-09T03:30:38;9.68;;;7.38;;
17818;SDS011;9034;50.284;19.310;2023-07-09T03:31:42;6.65;;;6.03;;
17818;SDS011;9034;50.284;19.310;2023-07-09T03:32:45;10.02;;;6.43;;
17818;SDS011;9034;50.284;19.310;2023-07-09T03:33:48;8.25;;;6.90;;
17818;SDS011;9034;50.284;19.310;2023-07-09T03:34:50;11.07;;;8.35;;
17818;SDS011;9034;50.284;19.310;2023-07-09T03:35:54;8.85;;;6.57;;
17818;SDS011;9034;50.284;19.310;2023-07-09T03:36:56;7.10;;;6.40;;
17818;SDS011;9034;50.284;19.310;2023-07-09T03:37:59;7.20;;;6.50;;
17818;SDS011;9034;50.284;19.310;2023-07-09T03:39:01;8.80;;;7.90;;
17818;SDS011;9034;50.284;19.310;2023-07-09T03:40:04;8.88;;;7.05;;
17818;SDS011;9034;50.284;19.310;2023-07-09T03:41:09;8.27;;;7.35;;
17818;SDS011;9034;50.284;19.310;2023-07-09T03:42:10;8.82;;;7.65;;
17818;SDS011;9034;50.284;19.310;2023-07-09T03:43:13;9.98;;;7.53;;
17818;SDS011;9034;50.284;19.310;2023-07-09T03:44:15;8.70;;;7.80;;
17818;SDS011;9034;50.284;19.310;2023-07-09T03:45:18;8.80;;;7.45;;
17818;SDS011;9034;50.284;19.310;2023-07-09T03:46:20;8.45;;;7.53;;
17818;SDS011;9034;50.284;19.310;2023-07-09T03:47:23;8.07;;;7.22;;
17818;SDS011;9034;50.284;19.310;2023-07-09T03:48:25;7.97;;;7.13;;
17818;SDS011;9034;50.284;19.310;2023-07-09T03:49:28;10.27;;;7.70;;
17818;SDS011;9034;50.284;19.310;2023-07-09T03:50:30;8.05;;;7.15;;
17818;SDS011;9034;50.284;19.310;2023-07-09T03:51:33;8.48;;;7.65;;
17818;SDS011;9034;50.284;19.310;2023-07-09T03:52:35;7.93;;;6.72;;
17818;SDS011;9034;50.284;19.310;2023-07-09T03:53:37;8.73;;;7.72;;
17818;SDS011;9034;50.284;19.310;2023-07-09T03:54:39;8.27;;;7.35;;
17818;SDS011;9034;50.284;19.310;2023-07-09T03:55:42;7.82;;;7.00;;
17818;SDS011;9034;50.284;19.310;2023-07-09T03:56:46;7.78;;;6.97;;
17818;SDS011;9034;50.284;19.310;2023-07-09T03:57:48;8.73;;;7.15;;
17818;SDS011;9034;50.284;19.310;2023-07-09T03:58:50;9.05;;;7.85;;
17818;SDS011;9034;50.284;19.310;2023-07-09T03:59:53;8.88;;;7.35;;
17818;SDS011;9034;50.284;19.310;2023-07-09T04:00:55;8.05;;;6.78;;
17818;SDS011;9034;50.284;19.310;2023-07-09T04:01:58;8.48;;;6.53;;
17818;SDS011;9034;50.284;19.310;2023-07-09T04:03:00;8.52;;;7.65;;
17818;SDS011;9034;50.284;19.310;2023-07-09T04:04:03;12.38;;;7.18;;
17818;SDS011;9034;50.284;19.310;2023-07-09T04:05:05;8.02;;;7.22;;
17818;SDS011;9034;50.284;19.310;2023-07-09T04:06:08;9.13;;;6.75;;
17818;SDS011;9034;50.284;19.310;2023-07-09T04:07:11;8.75;;;6.95;;
17818;SDS011;9034;50.284;19.310;2023-07-09T04:08:13;8.23;;;7.18;;
17818;SDS011;9034;50.284;19.310;2023-07-09T04:09:15;9.45;;;7.85;;
17818;SDS011;9034;50.284;19.310;2023-07-09T04:10:17;9.40;;;8.40;;
17818;SDS011;9034;50.284;19.310;2023-07-09T04:11:21;9.38;;;7.95;;
17818;SDS011;9034;50.284;19.310;2023-07-09T04:12:24;10.00;;;7.32;;
17818;SDS011;9034;50.284;19.310;2023-07-09T04:13:27;8.95;;;7.57;;
17818;SDS011;9034;50.284;19.310;2023-07-09T04:14:29;9.48;;;8.15;;
17818;SDS011;9034;50.284;19.310;2023-07-09T04:15:32;8.80;;;7.63;;
17818;SDS011;9034;50.284;19.310;2023-07-09T04:16:34;9.20;;;7.68;;
17818;SDS011;9034;50.284;19.310;2023-07-09T04:17:37;8.48;;;7.50;;
17818;SDS011;9034;50.284;19.310;2023-07-09T04:18:39;8.25;;;6.93;;
17818;SDS011;9034;50.284;19.310;2023-07-09T04:19:42;8.55;;;7.10;;
17818;SDS011;9034;50.284;19.310;2023-07-09T04:20:47;10.32;;;6.70;;
17818;SDS011;9034;50.284;19.310;2023-07-09T04:21:51;8.63;;;7.25;;
17818;SDS011;9034;50.284;19.310;2023-07-09T04:22:53;7.82;;;7.13;;
17818;SDS011;9034;50.284;19.310;2023-07-09T04:23:56;8.70;;;6.55;;
17818;SDS011;9034;50.284;19.310;2023-07-09T04:24:59;7.85;;;6.68;;
17818;SDS011;9034;50.284;19.310;2023-07-09T04:26:01;7.25;;;6.55;;
17818;SDS011;9034;50.284;19.310;2023-07-09T04:27:05;8.38;;;6.68;;
17818;SDS011;9034;50.284;19.310;2023-07-09T04:28:09;6.85;;;5.85;;
17818;SDS011;9034;50.284;19.310;2023-07-09T04:29:12;6.97;;;6.25;;
17818;SDS011;9034;50.284;19.310;2023-07-09T04:30:14;10.30;;;6.85;;
17818;SDS011;9034;50.284;19.310;2023-07-09T04:31:17;8.43;;;6.03;;
17818;SDS011;9034;50.284;19.310;2023-07-09T04:32:19;10.73;;;6.32;;
17818;SDS011;9034;50.284;19.310;2023-07-09T04:33:23;9.05;;;6.30;;
17818;SDS011;9034;50.284;19.310;2023-07-09T04:34:25;7.93;;;6.50;;
17818;SDS011;9034;50.284;19.310;2023-07-09T04:35:28;8.07;;;6.15;;
17818;SDS011;9034;50.284;19.310;2023-07-09T04:36:29;6.93;;;5.70;;
17818;SDS011;9034;50.284;19.310;2023-07-09T04:37:33;7.68;;;6.22;;
17818;SDS011;9034;50.284;19.310;2023-07-09T04:38:35;6.32;;;5.70;;
17818;SDS011;9034;50.284;19.310;2023-07-09T04:39:37;6.43;;;5.82;;
17818;SDS011;9034;50.284;19.310;2023-07-09T04:40:40;6.50;;;5.60;;
17818;SDS011;9034;50.284;19.310;2023-07-09T04:41:43;7.18;;;5.50;;
17818;SDS011;9034;50.284;19.310;2023-07-09T04:42:45;7.25;;;5.80;;
17818;SDS011;9034;50.284;19.310;2023-07-09T04:43:48;8.00;;;5.93;;
17818;SDS011;9034;50.284;19.310;2023-07-09T04:44:51;8.00;;;6.00;;
17818;SDS011;9034;50.284;19.310;2023-07-09T04:45:53;7.00;;;6.10;;
17818;SDS011;9034;50.284;19.310;2023-07-09T04:46:56;8.35;;;6.60;;
17818;SDS011;9034;50.284;19.310;2023-07-09T04:47:58;8.45;;;5.85;;
17818;SDS011;9034;50.284;19.310;2023-07-09T04:49:01;6.93;;;6.07;;
17818;SDS011;9034;50.284;19.310;2023-07-09T04:50:03;9.70;;;6.20;;
17818;SDS011;9034;50.284;19.310;2023-07-09T04:51:07;7.93;;;5.80;;
17818;SDS011;9034;50.284;19.310;2023-07-09T04:52:08;6.63;;;5.77;;
17818;SDS011;9034;50.284;19.310;2023-07-09T04:53:13;8.67;;;5.83;;
17818;SDS011;9034;50.284;19.310;2023-07-09T04:54:15;8.83;;;6.13;;
17818;SDS011;9034;50.284;19.310;2023-07-09T04:55:18;6.60;;;5.90;;
17818;SDS011;9034;50.284;19.310;2023-07-09T04:56:20;7.20;;;5.73;;
17818;SDS011;9034;50.284;19.310;2023-07-09T04:57:24;7.93;;;5.90;;
17818;SDS011;9034;50.284;19.310;2023-07-09T04:58:27;9.53;;;6.00;;
17818;SDS011;9034;50.284;19.310;2023-07-09T04:59:31;6.50;;;5.80;;
17818;SDS011;9034;50.284;19.310;2023-07-09T05:00:33;8.70;;;6.20;;
17818;SDS011;9034;50.284;19.310;2023-07-09T05:01:36;7.30;;;6.53;;
17818;SDS011;9034;50.284;19.310;2023-07-09T05:02:38;8.10;;;6.53;;
17818;SDS011;9034;50.284;19.310;2023-07-09T05:03:41;8.43;;;6.23;;
17818;SDS011;9034;50.284;19.310;2023-07-09T05:04:43;6.53;;;5.90;;
17818;SDS011;9034;50.284;19.310;2023-07-09T05:05:46;8.45;;;6.28;;
17818;SDS011;9034;50.284;19.310;2023-07-09T05:06:48;6.40;;;5.77;;
17818;SDS011;9034;50.284;19.310;2023-07-09T05:07:50;7.90;;;5.93;;
17818;SDS011;9034;50.284;19.310;2023-07-09T05:08:53;8.20;;;6.50;;
17818;SDS011;9034;50.284;19.310;2023-07-09T05:09:55;8.65;;;5.90;;
17818;SDS011;9034;50.284;19.310;2023-07-09T05:10:58;8.05;;;6.40;;
17818;SDS011;9034;50.284;19.310;2023-07-09T05:12:00;8.93;;;7.00;;
17818;SDS011;9034;50.284;19.310;2023-07-09T05:13:03;8.60;;;6.97;;
17818;SDS011;9034;50.284;19.310;2023-07-09T05:14:04;7.03;;;6.07;;
17818;SDS011;9034;50.284;19.310;2023-07-09T05:15:09;7.60;;;6.90;;
17818;SDS011;9034;50.284;19.310;2023-07-09T05:16:12;7.78;;;6.60;;
17818;SDS011;9034;50.284;19.310;2023-07-09T05:17:15;11.35;;;7.13;;
17818;SDS011;9034;50.284;19.310;2023-07-09T05:18:17;9.27;;;6.50;;
17818;SDS011;9034;50.284;19.310;2023-07-09T05:19:20;14.45;;;7.03;;
17818;SDS011;9034;50.284;19.310;2023-07-09T05:20:22;10.27;;;7.05;;
17818;SDS011;9034;50.284;19.310;2023-07-09T05:21:26;10.50;;;7.00;;
17818;SDS011;9034;50.284;19.310;2023-07-09T05:22:28;8.93;;;6.37;;
17818;SDS011;9034;50.284;19.310;2023-07-09T05:23:31;7.80;;;6.73;;
17818;SDS011;9034;50.284;19.310;2023-07-09T05:24:33;9.50;;;6.93;;
17818;SDS011;9034;50.284;19.310;2023-07-09T05:25:36;9.50;;;6.03;;
17818;SDS011;9034;50.284;19.310;2023-07-09T05:26:38;7.80;;;7.00;;
17818;SDS011;9034;50.284;19.310;2023-07-09T05:27:41;8.23;;;6.87;;
17818;SDS011;9034;50.284;19.310;2023-07-09T05:28:43;10.60;;;7.10;;
17818;SDS011;9034;50.284;19.310;2023-07-09T05:29:46;8.33;;;7.03;;
17818;SDS011;9034;50.284;19.310;2023-07-09T05:30:49;10.73;;;7.10;;
17818;SDS011;9034;50.284;19.310;2023-07-09T05:31:52;9.07;;;6.93;;
17818;SDS011;9034;50.284;19.310;2023-07-09T05:32:54;8.07;;;6.83;;
17818;SDS011;9034;50.284;19.310;2023-07-09T05:33:59;10.00;;;6.97;;
17818;SDS011;9034;50.284;19.310;2023-07-09T05:35:01;9.87;;;6.87;;
17818;SDS011;9034;50.284;19.310;2023-07-09T05:36:04;9.33;;;6.10;;
17818;SDS011;9034;50.284;19.310;2023-07-09T05:37:06;6.83;;;5.87;;
17818;SDS011;9034;50.284;19.310;2023-07-09T05:38:09;7.10;;;6.40;;
17818;SDS011;9034;50.284;19.310;2023-07-09T05:39:11;8.23;;;6.17;;
17818;SDS011;9034;50.284;19.310;2023-07-09T05:40:14;9.43;;;7.13;;
17818;SDS011;9034;50.284;19.310;2023-07-09T05:41:16;6.87;;;6.17;;
17818;SDS011;9034;50.284;19.310;2023-07-09T05:42:19;9.47;;;6.23;;
17818;SDS011;9034;50.284;19.310;2023-07-09T05:43:21;11.37;;;7.00;;
17818;SDS011;9034;50.284;19.310;2023-07-09T05:44:23;9.77;;;6.40;;
17818;SDS011;9034;50.284;19.310;2023-07-09T05:45:25;9.27;;;6.40;;
17818;SDS011;9034;50.284;19.310;2023-07-09T05:46:33;10.47;;;6.37;;
17818;SDS011;9034;50.284;19.310;2023-07-09T05:47:37;8.60;;;6.20;;
17818;SDS011;9034;50.284;19.310;2023-07-09T05:48:40;7.53;;;6.77;;
17818;SDS011;9034;50.284;19.310;2023-07-09T05:49:42;10.67;;;6.87;;
17818;SDS011;9034;50.284;19.310;2023-07-09T05:50:47;7.37;;;6.47;;
17818;SDS011;9034;50.284;19.310;2023-07-09T05:51:50;7.70;;;5.77;;
17818;SDS011;9034;50.284;19.310;2023-07-09T05:52:53;7.03;;;6.13;;
17818;SDS011;9034;50.284;19.310;2023-07-09T05:53:55;8.70;;;6.30;;
17818;SDS011;9034;50.284;19.310;2023-07-09T05:54:58;6.53;;;5.83;;
17818;SDS011;9034;50.284;19.310;2023-07-09T05:56:00;7.70;;;6.40;;
17818;SDS011;9034;50.284;19.310;2023-07-09T05:57:04;7.77;;;5.90;;
17818;SDS011;9034;50.284;19.310;2023-07-09T05:58:06;7.27;;;6.43;;
17818;SDS011;9034;50.284;19.310;2023-07-09T05:59:09;10.63;;;7.10;;
17818;SDS011;9034;50.284;19.310;2023-07-09T06:00:12;8.73;;;6.60;;
17818;SDS011;9034;50.284;19.310;2023-07-09T06:01:16;8.37;;;6.77;;
17818;SDS011;9034;50.284;19.310;2023-07-09T06:02:20;7.70;;;6.03;;
17818;SDS011;9034;50.284;19.310;2023-07-09T06:03:24;6.67;;;5.80;;
17818;SDS011;9034;50.284;19.310;2023-07-09T06:04:28;10.63;;;6.03;;
17818;SDS011;9034;50.284;19.310;2023-07-09T06:05:32;9.70;;;6.80;;
17818;SDS011;9034;50.284;19.310;2023-07-09T06:06:34;10.63;;;6.57;;
17818;SDS011;9034;50.284;19.310;2023-07-09T06:07:37;9.43;;;6.60;;
17818;SDS011;9034;50.284;19.310;2023-07-09T06:08:39;7.20;;;6.50;;
17818;SDS011;9034;50.284;19.310;2023-07-09T06:09:42;8.70;;;6.33;;
17818;SDS011;9034;50.284;19.310;2023-07-09T06:10:51;9.27;;;6.67;;
17818;SDS011;9034;50.284;19.310;2023-07-09T06:11:54;6.60;;;5.97;;
17818;SDS011;9034;50.284;19.310;2023-07-09T06:12:56;9.50;;;5.60;;
17818;SDS011;9034;50.284;19.310;2023-07-09T06:14:00;7.73;;;6.13;;
17818;SDS011;9034;50.284;19.310;2023-07-09T06:15:02;6.90;;;5.80;;
17818;SDS011;9034;50.284;19.310;2023-07-09T06:16:05;7.23;;;5.80;;
17818;SDS011;9034;50.284;19.310;2023-07-09T06:17:08;7.83;;;6.37;;
17818;SDS011;9034;50.284;19.310;2023-07-09T06:18:12;6.93;;;5.70;;
17818;SDS011;9034;50.284;19.310;2023-07-09T06:19:14;7.07;;;6.13;;
17818;SDS011;9034;50.284;19.310;2023-07-09T06:20:17;6.30;;;5.67;;
17818;SDS011;9034;50.284;19.310;2023-07-09T06:21:19;7.07;;;5.93;;
17818;SDS011;9034;50.284;19.310;2023-07-09T06:22:21;6.17;;;5.57;;
17818;SDS011;9034;50.284;19.310;2023-07-09T06:23:24;6.60;;;5.90;;
17818;SDS011;9034;50.284;19.310;2023-07-09T06:24:27;7.87;;;6.20;;
17818;SDS011;9034;50.284;19.310;2023-07-09T06:25:28;7.07;;;6.30;;